createdAt,value
2016-05-14T00:00:43.624Z,16.44
2016-05-14T00:01:45.002Z,16.44
2016-05-14T00:02:43.599Z,16.31
2016-05-14T00:03:44.147Z,16.38
2016-05-14T00:04:43.526Z,16.35
2016-05-14T00:05:44.090Z,16.37
2016-05-14T00:06:43.985Z,16.33
2016-05-14T00:07:43.955Z,16.22
2016-05-14T00:08:43.255Z,16.23
2016-05-14T00:09:44.117Z,16.25
2016-05-14T00:10:44.010Z,16.23
2016-05-14T00:11:43.685Z,16.26
2016-05-14T00:12:43.329Z,16.3
2016-05-14T00:13:57.066Z,16.22
2016-05-14T00:14:43.927Z,16.27
2016-05-14T00:15:43.305Z,16.23
2016-05-14T00:16:46.901Z,16.14
2016-05-14T00:17:43.546Z,16.2
2016-05-14T00:18:43.313Z,16.14
2016-05-14T00:19:43.473Z,16.07
2016-05-14T00:20:43.475Z,16.09
2016-05-14T00:21:43.181Z,16.09
2016-05-14T00:22:47.309Z,16.16
2016-05-14T00:23:43.093Z,16.07
2016-05-14T00:24:43.314Z,16.09
2016-05-14T00:25:43.456Z,16.09
2016-05-14T00:26:43.725Z,16.04
2016-05-14T00:27:43.337Z,16.14
2016-05-14T00:28:42.965Z,16.12
2016-05-14T00:29:43.967Z,16.11
2016-05-14T00:30:44.330Z,16.09
2016-05-14T00:31:43.208Z,16.06
2016-05-14T00:32:43.945Z,16.04
2016-05-14T00:33:43.025Z,16.11
2016-05-14T00:34:42.840Z,16.06
2016-05-14T00:35:43.563Z,16.04
2016-05-14T00:36:43.252Z,16
2016-05-14T00:37:43.552Z,16.03
2016-05-14T00:38:42.727Z,16.11
2016-05-14T00:39:43.479Z,16.06
2016-05-14T00:40:43.185Z,16
2016-05-14T00:41:43.141Z,15.96
2016-05-14T00:42:43.049Z,15.96
2016-05-14T00:43:42.724Z,15.92
2016-05-14T00:44:42.757Z,15.94
2016-05-14T00:45:42.871Z,15.94
2016-05-14T00:46:42.577Z,15.92
2016-05-14T00:47:42.563Z,15.92
2016-05-14T00:48:43.144Z,15.84
2016-05-14T00:49:42.803Z,15.82
2016-05-14T00:50:42.759Z,15.86
2016-05-14T00:51:42.511Z,15.84
2016-05-14T00:52:42.436Z,15.82
2016-05-14T00:53:42.298Z,15.75
2016-05-14T00:54:42.364Z,15.84
2016-05-14T00:55:43.757Z,15.79
2016-05-14T00:56:43.431Z,15.74
2016-05-14T00:57:42.777Z,15.72
2016-05-14T00:58:42.749Z,15.64
2016-05-14T00:59:43.236Z,15.67
2016-05-14T01:00:43.098Z,15.61
2016-05-14T01:01:43.039Z,15.6
2016-05-14T01:02:43.447Z,15.67
2016-05-14T01:03:42.231Z,15.67
2016-05-14T01:04:44.015Z,15.67
2016-05-14T01:05:42.424Z,15.72
2016-05-14T01:06:42.146Z,15.63
2016-05-14T01:07:42.117Z,15.7
2016-05-14T01:08:42.089Z,15.66
2016-05-14T01:09:42.107Z,15.6
2016-05-14T01:10:42.047Z,15.74
2016-05-14T01:11:42.502Z,15.68
2016-05-14T01:12:42.005Z,15.66
2016-05-14T01:13:41.993Z,15.74
2016-05-14T01:14:41.963Z,15.7
2016-05-14T01:15:42.014Z,15.66
2016-05-14T01:16:41.938Z,15.61
2016-05-14T01:17:41.800Z,15.67
2016-05-14T01:18:41.897Z,15.6
2016-05-14T01:19:41.852Z,15.61
2016-05-14T01:20:41.854Z,15.63
2016-05-14T01:21:41.686Z,15.7
2016-05-14T01:22:41.798Z,15.61
2016-05-14T01:23:41.879Z,15.68
2016-05-14T01:24:41.803Z,15.64
2016-05-14T01:25:41.540Z,15.61
2016-05-14T01:26:41.418Z,15.68
2016-05-14T01:27:41.670Z,15.64
2016-05-14T01:28:41.658Z,15.66
2016-05-14T01:29:41.817Z,15.7
2016-05-14T01:30:41.336Z,15.64
2016-05-14T01:31:41.573Z,15.64
2016-05-14T01:32:41.575Z,15.68
2016-05-14T01:33:41.531Z,15.57
2016-05-14T01:34:41.534Z,15.7
2016-05-14T01:35:41.677Z,15.63
2016-05-14T01:36:41.507Z,15.63
2016-05-14T01:37:41.479Z,15.6
2016-05-14T01:38:41.466Z,15.61
2016-05-14T01:39:41.422Z,15.67
2016-05-14T01:40:41.424Z,15.61
2016-05-14T01:41:41.366Z,15.56
2016-05-14T01:42:41.351Z,15.63
2016-05-14T01:43:41.385Z,15.6
2016-05-14T01:44:41.154Z,15.63
2016-05-14T01:45:41.251Z,15.7
2016-05-14T01:46:41.300Z,15.59
2016-05-14T01:47:41.271Z,15.54
2016-05-14T01:48:41.305Z,15.56
2016-05-14T01:49:41.182Z,15.6
2016-05-14T01:50:41.202Z,15.61
2016-05-14T01:51:41.157Z,15.52
2016-05-14T01:52:41.176Z,15.52
2016-05-14T01:53:40.959Z,15.54
2016-05-14T01:54:41.103Z,15.6
2016-05-14T01:55:41.090Z,15.56
2016-05-14T01:56:41.092Z,15.51
2016-05-14T01:57:41.002Z,15.56
2016-05-14T01:58:41.192Z,15.54
2016-05-14T01:59:40.835Z,15.54
2016-05-14T02:00:40.978Z,15.52
2016-05-14T02:01:40.778Z,15.49
2016-05-14T02:02:40.968Z,15.54
2016-05-14T02:03:40.924Z,15.52
2016-05-14T02:04:40.848Z,15.56
2016-05-14T02:05:40.757Z,15.43
2016-05-14T02:06:40.822Z,15.45
2016-05-14T02:07:40.810Z,15.43
2016-05-14T02:08:40.797Z,15.46
2016-05-14T02:09:40.769Z,15.46
2016-05-14T02:10:40.771Z,15.38
2016-05-14T02:11:40.696Z,15.31
2016-05-14T02:12:40.698Z,15.38
2016-05-14T02:13:40.685Z,15.35
2016-05-14T02:14:40.516Z,15.26
2016-05-14T02:15:40.613Z,15.24
2016-05-14T02:16:40.585Z,15.23
2016-05-14T02:17:40.430Z,15.26
2016-05-14T02:18:41.261Z,15.28
2016-05-14T02:19:40.357Z,15.17
2016-05-14T02:20:40.516Z,15.19
2016-05-14T02:21:40.504Z,15.19
2016-05-14T02:22:40.615Z,15.17
2016-05-14T02:23:40.509Z,15.06
2016-05-14T02:24:40.402Z,15.02
2016-05-14T02:25:40.390Z,15.09
2016-05-14T02:26:40.439Z,14.99
2016-05-14T02:27:40.191Z,15.03
2016-05-14T02:28:40.179Z,14.95
2016-05-14T02:29:40.323Z,15.02
2016-05-14T02:30:40.012Z,15.02
2016-05-14T02:31:40.203Z,15.01
2016-05-14T02:32:40.253Z,14.99
2016-05-14T02:33:40.520Z,14.91
2016-05-14T02:34:40.164Z,14.98
2016-05-14T02:35:40.244Z,14.94
2016-05-14T02:36:40.200Z,14.95
2016-05-14T02:37:40.047Z,14.86
2016-05-14T02:38:40.050Z,14.84
2016-05-14T02:39:40.100Z,14.88
2016-05-14T02:40:40.086Z,14.87
2016-05-14T02:41:40.041Z,14.8
2016-05-14T02:42:40.075Z,14.78
2016-05-14T02:43:40.047Z,14.83
2016-05-14T02:44:40.050Z,14.86
2016-05-14T02:45:40.068Z,14.86
2016-05-14T02:46:39.930Z,14.74
2016-05-14T02:47:39.933Z,14.8
2016-05-14T02:48:40.341Z,14.72
2016-05-14T02:49:40.204Z,14.69
2016-05-14T02:50:39.846Z,14.72
2016-05-14T02:51:39.818Z,14.69
2016-05-14T02:52:39.838Z,14.75
2016-05-14T02:53:39.651Z,14.71
2016-05-14T02:54:39.732Z,14.78
2016-05-14T02:55:39.704Z,14.69
2016-05-14T02:56:39.723Z,14.67
2016-05-14T02:57:39.507Z,14.67
2016-05-14T02:58:39.650Z,14.65
2016-05-14T02:59:39.621Z,14.71
2016-05-14T03:00:39.592Z,14.67
2016-05-14T03:01:39.705Z,14.72
2016-05-14T03:02:39.551Z,14.74
2016-05-14T03:03:39.539Z,14.72
2016-05-14T03:04:39.556Z,14.72
2016-05-14T03:05:39.434Z,14.75
2016-05-14T03:06:39.328Z,14.72
2016-05-14T03:07:39.424Z,14.75
2016-05-14T03:08:39.427Z,14.69
2016-05-14T03:09:39.383Z,14.67
2016-05-14T03:10:39.354Z,14.65
2016-05-14T03:11:39.091Z,14.67
2016-05-14T03:12:39.219Z,14.71
2016-05-14T03:13:39.144Z,14.64
2016-05-14T03:14:39.286Z,14.61
2016-05-14T03:15:39.789Z,14.61
2016-05-14T03:16:39.261Z,14.62
2016-05-14T03:17:39.232Z,14.57
2016-05-14T03:18:39.204Z,14.62
2016-05-14T03:19:39.049Z,14.53
2016-05-14T03:20:39.146Z,14.62
2016-05-14T03:21:42.649Z,14.6
2016-05-14T03:22:38.980Z,14.52
2016-05-14T03:23:39.077Z,14.56
2016-05-14T03:24:38.938Z,14.49
2016-05-14T03:25:39.129Z,14.5
2016-05-14T03:26:39.209Z,14.39
2016-05-14T03:27:38.978Z,14.44
2016-05-14T03:28:39.012Z,14.37
2016-05-14T03:29:39.045Z,14.37
2016-05-14T03:30:38.987Z,14.35
2016-05-14T03:31:39.301Z,14.38
2016-05-14T03:32:38.929Z,14.34
2016-05-14T03:33:39.103Z,14.44
2016-05-14T03:34:38.934Z,14.34
2016-05-14T03:35:38.828Z,14.34
2016-05-14T03:36:38.814Z,14.31
2016-05-14T03:37:38.817Z,14.42
2016-05-14T03:38:38.789Z,14.29
2016-05-14T03:39:38.776Z,14.43
2016-05-14T03:40:38.700Z,14.44
2016-05-14T03:41:38.688Z,14.31
2016-05-14T03:42:38.550Z,14.37
2016-05-14T03:43:38.661Z,14.32
2016-05-14T03:44:38.789Z,14.34
2016-05-14T03:45:52.494Z,14.37
2016-05-14T03:46:38.654Z,14.37
2016-05-14T03:47:38.563Z,14.37
2016-05-14T03:48:38.362Z,14.37
2016-05-14T03:49:38.552Z,14.38
2016-05-14T03:50:39.149Z,14.35
2016-05-14T03:51:38.730Z,14.34
2016-05-14T03:52:39.904Z,14.27
2016-05-14T03:53:38.360Z,14.35
2016-05-14T03:54:39.066Z,14.34
2016-05-14T03:55:39.537Z,14.35
2016-05-14T03:56:40.010Z,14.34
2016-05-14T03:57:39.417Z,14.28
2016-05-14T03:58:38.295Z,14.37
2016-05-14T03:59:38.080Z,14.38
2016-05-14T04:00:38.879Z,14.29
2016-05-14T04:01:39.617Z,14.27
2016-05-14T04:02:38.259Z,14.38
2016-05-14T04:03:38.747Z,14.29
2016-05-14T04:04:39.234Z,14.29
2016-05-14T04:05:38.267Z,14.24
2016-05-14T04:06:51.895Z,14.25
2016-05-14T04:07:39.586Z,14.27
2016-05-14T04:08:38.682Z,14.31
2016-05-14T04:09:38.889Z,14.32
2016-05-14T04:10:38.297Z,14.32
2016-05-14T04:11:38.550Z,14.29
2016-05-14T04:12:38.114Z,14.31
2016-05-14T04:13:38.555Z,14.24
2016-05-14T04:14:37.916Z,14.2
2016-05-14T04:15:37.763Z,14.24
2016-05-14T04:16:38.032Z,14.25
2016-05-14T04:17:38.550Z,14.2
2016-05-14T04:18:38.208Z,14.13
2016-05-14T04:19:38.311Z,14.1
2016-05-14T04:20:37.888Z,14.09
2016-05-14T04:21:38.168Z,14.04
2016-05-14T04:22:38.229Z,14.12
2016-05-14T04:23:39.024Z,14.07
2016-05-14T04:24:38.551Z,14.04
2016-05-14T04:25:37.945Z,14.1
2016-05-14T04:26:39.446Z,14.04
2016-05-14T04:27:37.887Z,14.02
2016-05-14T04:28:37.983Z,14.02
2016-05-14T04:29:38.546Z,13.98
2016-05-14T04:30:38.258Z,13.99
2016-05-14T04:31:38.610Z,13.94
2016-05-14T04:32:37.994Z,13.94
2016-05-14T04:33:51.955Z,13.95
2016-05-14T04:34:38.151Z,13.88
2016-05-14T04:35:38.234Z,13.91
2016-05-14T04:36:38.879Z,13.88
2016-05-14T04:37:39.321Z,13.88
2016-05-14T04:38:37.935Z,13.88
2016-05-14T04:39:37.720Z,13.94
2016-05-14T04:40:38.428Z,13.91
2016-05-14T04:41:38.884Z,13.89
2016-05-14T04:42:51.685Z,13.92
2016-05-14T04:43:37.578Z,13.96
2016-05-14T04:44:37.629Z,13.95
2016-05-14T04:45:37.506Z,13.95
2016-05-14T04:46:37.619Z,14.04
2016-05-14T04:47:38.200Z,13.99
2016-05-14T04:48:38.172Z,14.1
2016-05-14T04:49:38.269Z,14.04
2016-05-14T04:50:37.240Z,14.12
2016-05-14T04:51:37.962Z,14.06
2016-05-14T04:52:51.245Z,14.02
2016-05-14T04:53:51.107Z,14.07
2016-05-14T04:54:37.860Z,14.01
2016-05-14T04:55:37.348Z,13.98
2016-05-14T04:56:37.663Z,13.99
2016-05-14T04:57:38.696Z,14.01
2016-05-14T04:58:37.293Z,13.99
2016-05-14T04:59:37.217Z,14.04
2016-05-14T05:00:37.736Z,13.98
2016-05-14T05:01:37.739Z,13.98
2016-05-14T05:02:37.647Z,13.83
2016-05-14T05:03:38.026Z,13.87
2016-05-14T05:04:37.325Z,13.92
2016-05-14T05:05:38.562Z,13.91
2016-05-14T05:06:37.440Z,13.81
2016-05-14T05:07:37.130Z,13.84
2016-05-14T05:08:38.726Z,13.92
2016-05-14T05:09:37.056Z,13.8
2016-05-14T05:10:37.059Z,13.84
2016-05-14T05:11:37.453Z,13.87
2016-05-14T05:12:37.097Z,13.92
2016-05-14T05:13:37.928Z,13.83
2016-05-14T05:14:37.602Z,13.92
2016-05-14T05:15:37.652Z,13.92
2016-05-14T05:16:36.841Z,13.88
2016-05-14T05:17:37.344Z,14.04
2016-05-14T05:18:37.534Z,13.95
2016-05-14T05:19:37.147Z,13.96
2016-05-14T05:20:50.508Z,13.99
2016-05-14T05:21:37.074Z,14.01
2016-05-14T05:22:39.749Z,13.99
2016-05-14T05:23:50.516Z,14.01
2016-05-14T05:24:50.488Z,14.04
2016-05-14T05:25:50.428Z,14.09
2016-05-14T05:26:50.681Z,13.99
2016-05-14T05:27:37.059Z,14.1
2016-05-14T05:28:37.108Z,14.12
2016-05-14T05:29:37.501Z,14.19
2016-05-14T05:30:37.223Z,14.32
2016-05-14T05:31:37.257Z,14.27
2016-05-14T05:32:37.681Z,14.28
2016-05-14T05:33:50.653Z,14.32
2016-05-14T05:34:50.218Z,14.31
2016-05-14T05:35:50.158Z,14.35
2016-05-14T05:36:50.817Z,14.34
2016-05-14T05:37:49.929Z,14.37
2016-05-14T05:38:37.072Z,14.27
2016-05-14T05:39:50.216Z,14.34
2016-05-14T05:40:50.374Z,14.32
2016-05-14T05:41:37.064Z,14.35
2016-05-14T05:42:50.271Z,14.42
2016-05-14T05:43:36.836Z,14.37
2016-05-14T05:44:50.495Z,14.38
2016-05-14T05:45:36.700Z,14.37
2016-05-14T05:46:39.453Z,14.29
2016-05-14T05:47:37.456Z,14.46
2016-05-14T05:48:36.896Z,14.39
2016-05-14T05:49:37.008Z,14.42
2016-05-14T05:50:36.729Z,14.38
2016-05-14T05:51:36.811Z,14.42
2016-05-14T05:52:37.298Z,14.5
2016-05-14T05:53:37.254Z,14.43
2016-05-14T05:54:36.819Z,14.35
2016-05-14T05:55:37.993Z,14.42
2016-05-14T05:56:35.933Z,14.42
2016-05-14T05:57:35.999Z,14.43
2016-05-14T05:58:39.673Z,14.42
2016-05-14T05:59:36.316Z,14.38
2016-05-14T06:00:35.928Z,14.38
2016-05-14T06:01:36.057Z,14.35
2016-05-14T06:02:35.965Z,14.31
2016-05-14T06:03:36.109Z,14.25
2016-05-14T06:04:37.205Z,14.37
2016-05-14T06:05:35.723Z,14.29
2016-05-14T06:06:35.789Z,14.31
2016-05-14T06:07:36.526Z,14.27
2016-05-14T06:08:35.794Z,14.28
2016-05-14T06:09:35.968Z,14.31
2016-05-14T06:10:35.783Z,14.37
2016-05-14T06:11:35.770Z,14.39
2016-05-14T06:12:35.805Z,14.24
2016-05-14T06:13:35.823Z,14.38
2016-05-14T06:14:35.732Z,14.39
2016-05-14T06:15:36.000Z,14.38
2016-05-14T06:16:35.956Z,14.35
2016-05-14T06:17:35.927Z,14.42
2016-05-14T06:18:36.227Z,14.38
2016-05-14T06:19:35.901Z,14.39
2016-05-14T06:20:36.294Z,14.44
2016-05-14T06:21:36.313Z,14.44
2016-05-14T06:22:36.332Z,14.42
2016-05-14T06:23:35.850Z,14.44
2016-05-14T06:24:35.665Z,14.44
2016-05-14T06:25:35.918Z,14.44
2016-05-14T06:26:35.826Z,14.43
2016-05-14T06:27:35.985Z,14.38
2016-05-14T06:28:35.223Z,14.42
2016-05-14T06:29:48.912Z,14.39
2016-05-14T06:30:36.009Z,14.25
2016-05-14T06:31:36.121Z,14.25
2016-05-14T06:32:35.577Z,14.38
2016-05-14T06:33:34.940Z,14.38
2016-05-14T06:34:34.957Z,14.28
2016-05-14T06:35:35.742Z,14.27
2016-05-14T06:36:35.025Z,14.34
2016-05-14T06:37:34.981Z,14.38
2016-05-14T06:38:34.984Z,14.35
2016-05-14T06:39:35.908Z,14.28
2016-05-14T06:40:34.923Z,14.34
2016-05-14T06:41:34.895Z,14.31
2016-05-14T06:42:35.150Z,14.27
2016-05-14T06:43:35.123Z,14.38
2016-05-14T06:44:35.344Z,14.38
2016-05-14T06:45:34.828Z,14.32
2016-05-14T06:46:35.974Z,14.27
2016-05-14T06:47:34.739Z,14.34
2016-05-14T06:48:35.164Z,14.39
2016-05-14T06:49:34.886Z,14.34
2016-05-14T06:50:35.625Z,14.42
2016-05-14T06:51:35.362Z,14.39
2016-05-14T06:52:34.815Z,14.44
2016-05-14T06:53:34.975Z,14.44
2016-05-14T06:54:34.572Z,14.47
2016-05-14T06:55:35.246Z,14.43
2016-05-14T06:56:34.811Z,14.39
2016-05-14T06:57:34.516Z,14.44
2016-05-14T06:58:35.113Z,14.43
2016-05-14T06:59:34.475Z,14.44
2016-05-14T07:00:35.087Z,14.39
2016-05-14T07:01:34.652Z,14.38
2016-05-14T07:02:36.126Z,14.42
2016-05-14T07:03:35.548Z,14.37
2016-05-14T07:04:34.332Z,14.43
2016-05-14T07:05:34.319Z,14.44
2016-05-14T07:06:34.260Z,14.49
2016-05-14T07:07:34.653Z,14.47
2016-05-14T07:08:34.531Z,14.44
2016-05-14T07:09:34.237Z,14.42
2016-05-14T07:10:34.348Z,14.56
2016-05-14T07:11:34.695Z,14.52
2016-05-14T07:12:34.416Z,14.44
2016-05-14T07:13:36.656Z,14.49
2016-05-14T07:14:34.344Z,14.53
2016-05-14T07:15:34.378Z,14.54
2016-05-14T07:16:34.240Z,14.57
2016-05-14T07:17:35.008Z,14.47
2016-05-14T07:18:34.948Z,14.6
2016-05-14T07:19:34.529Z,14.53
2016-05-14T07:20:34.110Z,14.52
2016-05-14T07:21:34.034Z,14.54
2016-05-14T07:22:34.365Z,14.56
2016-05-14T07:23:35.133Z,14.54
2016-05-14T07:24:34.761Z,14.49
2016-05-14T07:25:34.905Z,14.53
2016-05-14T07:26:35.908Z,14.46
2016-05-14T07:27:34.487Z,14.44
2016-05-14T07:28:34.007Z,14.34
2016-05-14T07:29:36.228Z,14.34
2016-05-14T07:30:47.515Z,14.37
2016-05-14T07:31:34.749Z,14.39
2016-05-14T07:32:33.704Z,14.31
2016-05-14T07:33:33.848Z,14.28
2016-05-14T07:34:47.290Z,14.29
2016-05-14T07:35:34.962Z,14.32
2016-05-14T07:36:47.421Z,14.31
2016-05-14T07:37:34.531Z,14.31
2016-05-14T07:38:34.518Z,14.37
2016-05-14T07:39:34.771Z,14.34
2016-05-14T07:40:33.757Z,14.43
2016-05-14T07:41:34.401Z,14.46
2016-05-14T07:42:33.762Z,14.44
2016-05-14T07:43:33.796Z,14.42
2016-05-14T07:44:47.520Z,14.57
2016-05-14T07:45:33.786Z,14.61
2016-05-14T07:46:34.023Z,14.56
2016-05-14T07:47:33.761Z,14.6
2016-05-14T07:48:33.795Z,14.56
2016-05-14T07:49:33.876Z,14.64
2016-05-14T07:50:47.069Z,14.6
2016-05-14T07:51:34.662Z,14.56
2016-05-14T07:52:33.930Z,14.61
2016-05-14T07:53:34.183Z,14.56
2016-05-14T07:54:47.063Z,14.57
2016-05-14T07:55:47.769Z,14.6
2016-05-14T07:56:36.707Z,14.61
2016-05-14T07:57:46.930Z,14.64
2016-05-14T07:58:46.855Z,14.61
2016-05-14T07:59:46.921Z,14.67
2016-05-14T08:00:34.499Z,14.69
2016-05-14T08:01:47.394Z,14.67
2016-05-14T08:02:33.754Z,14.64
2016-05-14T08:03:37.291Z,14.74
2016-05-14T08:04:34.775Z,14.67
2016-05-14T08:05:33.762Z,14.72
2016-05-14T08:06:34.624Z,14.81
2016-05-14T08:07:47.395Z,15.01
2016-05-14T08:08:34.317Z,15.01
2016-05-14T08:09:34.710Z,15.08
2016-05-14T08:10:33.838Z,14.99
2016-05-14T08:11:33.701Z,15.03
2016-05-14T08:12:36.125Z,15.02
2016-05-14T08:13:34.939Z,15.11
2016-05-14T08:14:35.864Z,15.08
2016-05-14T08:15:34.289Z,15.03
2016-05-14T08:16:34.229Z,15.03
2016-05-14T08:17:33.466Z,14.94
2016-05-14T08:18:46.909Z,14.94
2016-05-14T08:19:32.503Z,14.99
2016-05-14T08:20:33.317Z,14.99
2016-05-14T08:21:32.602Z,14.94
2016-05-14T08:22:32.823Z,15.03
2016-05-14T08:23:32.998Z,14.94
2016-05-14T08:24:33.422Z,15.11
2016-05-14T08:25:33.066Z,15.05
2016-05-14T08:26:34.163Z,15.08
2016-05-14T08:27:32.899Z,15.02
2016-05-14T08:28:33.464Z,15.11
2016-05-14T08:29:34.232Z,15.08
2016-05-14T08:30:33.282Z,15.03
2016-05-14T08:31:32.785Z,15.09
2016-05-14T08:32:33.069Z,15.13
2016-05-14T08:33:33.447Z,15.11
2016-05-14T08:34:32.231Z,15.12
2016-05-14T08:35:32.765Z,15.17
2016-05-14T08:36:32.705Z,15.2
2016-05-14T08:37:32.692Z,15.21
2016-05-14T08:38:33.226Z,15.23
2016-05-14T08:39:32.541Z,15.23
2016-05-14T08:40:33.496Z,15.24
2016-05-14T08:41:33.921Z,15.26
2016-05-14T08:42:32.784Z,15.27
2016-05-14T08:43:33.223Z,15.13
2016-05-14T08:44:33.179Z,15.23
2016-05-14T08:45:32.667Z,15.2
2016-05-14T08:46:33.138Z,15.23
2016-05-14T08:47:32.281Z,15.21
2016-05-14T08:48:32.909Z,15.23
2016-05-14T08:49:32.084Z,15.23
2016-05-14T08:50:32.023Z,15.21
2016-05-14T08:51:32.370Z,15.17
2016-05-14T08:52:32.091Z,15.19
2016-05-14T08:53:31.922Z,15.12
2016-05-14T08:55:32.772Z,15.02
2016-05-14T08:56:45.558Z,15.06
2016-05-14T08:57:32.667Z,15.01
2016-05-14T08:58:31.920Z,15.02
2016-05-14T08:59:31.861Z,15.05
2016-05-14T09:00:31.754Z,15.06
2016-05-14T09:01:32.022Z,15.03
2016-05-14T09:02:31.743Z,15.13
2016-05-14T09:03:31.918Z,15.27
2016-05-14T09:04:31.796Z,15.27
2016-05-14T09:05:32.438Z,15.24
2016-05-14T09:06:31.660Z,15.24
2016-05-14T09:07:31.490Z,15.31
2016-05-14T09:08:31.619Z,15.3
2016-05-14T09:09:32.075Z,15.26
2016-05-14T09:11:32.127Z,15.27
2016-05-14T09:12:32.036Z,15.24
2016-05-14T09:13:31.617Z,15.27
2016-05-14T09:14:32.260Z,15.24
2016-05-14T09:15:31.419Z,15.21
2016-05-14T09:16:31.781Z,15.26
2016-05-14T09:17:31.361Z,15.27
2016-05-14T09:18:31.927Z,15.36
2016-05-14T09:19:31.477Z,15.33
2016-05-14T09:20:31.369Z,15.31
2016-05-14T09:21:31.717Z,15.24
2016-05-14T09:22:32.234Z,15.27
2016-05-14T09:23:31.597Z,15.36
2016-05-14T09:24:31.178Z,15.46
2016-05-14T09:25:31.805Z,15.51
2016-05-14T09:26:31.136Z,15.46
2016-05-14T09:27:31.435Z,15.52
2016-05-14T09:28:31.907Z,15.56
2016-05-14T09:29:31.550Z,15.51
2016-05-14T09:30:31.459Z,15.42
2016-05-14T09:31:31.072Z,15.43
2016-05-14T09:32:31.433Z,15.43
2016-05-14T09:33:32.405Z,15.42
2016-05-14T09:34:31.267Z,15.41
2016-05-14T09:35:30.894Z,15.33
2016-05-14T09:36:31.460Z,15.41
2016-05-14T09:37:31.306Z,15.45
2016-05-14T09:38:31.746Z,15.36
2016-05-14T09:39:31.312Z,15.36
2016-05-14T09:40:30.892Z,15.41
2016-05-14T09:41:31.098Z,15.23
2016-05-14T09:42:30.787Z,15.15
2016-05-14T09:43:30.947Z,15.17
2016-05-14T09:44:31.294Z,15.03
2016-05-14T09:45:32.828Z,15.03
2016-05-14T09:46:30.721Z,15.06
2016-05-14T09:47:30.739Z,14.99
2016-05-14T09:48:30.664Z,15.05
2016-05-14T09:49:30.682Z,14.94
2016-05-14T09:50:30.559Z,14.99
2016-05-14T09:51:30.672Z,15.06
2016-05-14T09:52:30.737Z,14.99
2016-05-14T09:53:30.692Z,15.08
2016-05-14T09:54:30.461Z,15.06
2016-05-14T09:55:30.448Z,15.08
2016-05-14T09:56:30.623Z,15.15
2016-05-14T09:57:30.485Z,15.13
2016-05-14T09:58:30.300Z,15.23
2016-05-14T09:59:30.381Z,15.27
2016-05-14T10:00:30.352Z,15.33
2016-05-14T10:01:30.386Z,15.33
2016-05-14T10:02:30.202Z,15.39
2016-05-14T10:03:30.548Z,15.45
2016-05-14T10:04:30.551Z,15.52
2016-05-14T10:05:30.241Z,15.63
2016-05-14T10:06:30.415Z,15.64
2016-05-14T10:07:30.184Z,15.67
2016-05-14T10:08:30.140Z,15.64
2016-05-14T10:09:30.205Z,15.67
2016-05-14T10:10:30.161Z,15.64
2016-05-14T10:11:30.490Z,15.67
2016-05-14T10:12:29.901Z,15.57
2016-05-14T10:13:30.029Z,15.6
2016-05-14T10:14:29.874Z,15.59
2016-05-14T10:15:29.956Z,15.59
2016-05-14T10:16:30.145Z,15.45
2016-05-14T10:17:30.179Z,15.46
2016-05-14T10:18:30.667Z,15.35
2016-05-14T10:19:30.028Z,15.24
2016-05-14T10:20:29.719Z,15.26
2016-05-14T10:21:29.939Z,15.23
2016-05-14T10:22:29.974Z,15.23
2016-05-14T10:23:29.681Z,15.24
2016-05-14T10:24:30.151Z,15.28
2016-05-14T10:25:29.936Z,15.31
2016-05-14T10:26:29.813Z,15.31
2016-05-14T10:27:29.753Z,15.28
2016-05-14T10:28:29.866Z,15.36
2016-05-14T10:29:30.696Z,15.42
2016-05-14T10:30:29.699Z,15.36
2016-05-14T10:31:29.749Z,15.38
2016-05-14T10:32:29.360Z,15.45
2016-05-14T10:33:31.816Z,15.52
2016-05-14T10:34:29.600Z,15.59
2016-05-14T10:35:29.587Z,15.52
2016-05-14T10:36:29.683Z,15.51
2016-05-14T10:37:29.593Z,15.57
2016-05-14T10:38:29.580Z,15.6
2016-05-14T10:39:29.552Z,15.82
2016-05-14T10:40:29.569Z,15.94
2016-05-14T10:41:29.447Z,15.92
2016-05-14T10:42:29.513Z,16.04
2016-05-14T10:43:43.440Z,16.04
2016-05-14T10:44:29.330Z,15.99
2016-05-14T10:45:29.411Z,15.89
2016-05-14T10:46:29.492Z,15.86
2016-05-14T10:47:29.432Z,15.85
2016-05-14T10:48:29.215Z,15.88
2016-05-14T10:49:29.250Z,15.81
2016-05-14T10:50:29.189Z,15.92
2016-05-14T10:51:30.161Z,15.89
2016-05-14T10:52:29.493Z,16.01
2016-05-14T10:53:29.214Z,16.03
2016-05-14T10:54:29.231Z,15.89
2016-05-14T10:55:29.406Z,15.94
2016-05-14T10:56:29.081Z,15.85
2016-05-14T10:57:29.100Z,15.97
2016-05-14T10:59:29.105Z,15.97
2016-05-14T11:00:29.202Z,16.07
2016-05-14T11:01:30.080Z,16.18
2016-05-14T11:02:29.207Z,16.15
2016-05-14T11:03:29.038Z,16.25
2016-05-14T11:04:28.899Z,16.2
2016-05-14T11:05:28.871Z,16.2
2016-05-14T11:06:29.093Z,16.23
2016-05-14T11:07:28.829Z,16.26
2016-05-14T11:08:28.630Z,16.23
2016-05-14T11:09:28.834Z,16.22
2016-05-14T11:10:28.774Z,16.26
2016-05-14T11:11:29.122Z,16.23
2016-05-14T11:12:29.218Z,16.25
2016-05-14T11:13:29.205Z,16.27
2016-05-14T11:14:28.754Z,16.25
2016-05-14T11:15:28.773Z,16.22
2016-05-14T11:16:28.698Z,16.16
2016-05-14T11:17:28.669Z,16.14
2016-05-14T11:18:29.046Z,16.16
2016-05-14T11:19:28.440Z,16.12
2016-05-14T11:20:28.709Z,16.14
2016-05-14T11:21:29.117Z,16.06
2016-05-14T11:22:29.073Z,15.97
2016-05-14T11:23:28.419Z,16.01
2016-05-14T11:24:28.516Z,16.01
2016-05-14T11:25:28.940Z,16
2016-05-14T11:26:28.350Z,16.09
2016-05-14T11:27:28.462Z,16.12
2016-05-14T11:28:28.995Z,16.26
2016-05-14T11:29:28.404Z,16.27
2016-05-14T11:30:28.313Z,16.23
2016-05-14T11:31:28.753Z,16.12
2016-05-14T11:32:28.241Z,16.06
2016-05-14T11:33:28.930Z,15.97
2016-05-14T11:34:28.308Z,15.88
2016-05-14T11:35:28.139Z,15.84
2016-05-14T11:36:28.314Z,15.74
2016-05-14T11:37:28.035Z,15.7
2016-05-14T11:38:28.413Z,15.52
2016-05-14T11:39:28.150Z,15.57
2016-05-14T11:40:28.121Z,15.57
2016-05-14T11:41:28.155Z,15.49
2016-05-14T11:42:28.032Z,15.52
2016-05-14T11:43:28.535Z,15.52
2016-05-14T11:44:28.179Z,15.59
2016-05-14T11:45:27.838Z,15.68
2016-05-14T11:46:28.043Z,15.75
2016-05-14T11:47:27.953Z,15.75
2016-05-14T11:48:27.940Z,15.75
2016-05-14T11:49:28.005Z,15.85
2016-05-14T11:50:27.882Z,16.01
2016-05-14T11:51:27.729Z,16.23
2016-05-14T11:52:27.888Z,16.25
2016-05-14T11:53:27.845Z,16.38
2016-05-14T11:54:27.831Z,16.56
2016-05-14T11:55:27.771Z,16.63
2016-05-14T11:56:28.164Z,16.88
2016-05-14T11:57:27.714Z,16.95
2016-05-14T11:58:28.170Z,17.08
2016-05-14T11:59:27.719Z,17.32
2016-05-14T12:00:27.691Z,18.03
2016-05-14T12:01:28.318Z,18.7
2016-05-14T12:02:27.602Z,18.17
2016-05-14T12:03:28.324Z,18.73
2016-05-14T12:04:27.795Z,18.28
2016-05-14T12:05:27.376Z,18.46
2016-05-14T12:06:27.394Z,18.18
2016-05-14T12:07:28.116Z,18.03
2016-05-14T12:08:27.446Z,17.76
2016-05-14T12:09:27.325Z,17.55
2016-05-14T12:10:27.232Z,17.4
2016-05-14T12:11:27.423Z,17.38
2016-05-14T12:12:27.363Z,17.14
2016-05-14T12:13:27.319Z,17.04
2016-05-14T12:14:27.666Z,16.95
2016-05-14T12:15:27.154Z,16.8
2016-05-14T12:16:28.188Z,16.68
2016-05-14T12:17:27.284Z,16.62
2016-05-14T12:18:27.755Z,16.62
2016-05-14T12:20:27.088Z,16.65
2016-05-14T12:21:27.170Z,16.68
2016-05-14T12:22:27.187Z,16.6
2016-05-14T12:23:27.315Z,16.59
2016-05-14T12:24:27.240Z,16.49
2016-05-14T12:25:27.164Z,16.35
2016-05-14T12:26:27.136Z,16.37
2016-05-14T12:27:27.170Z,16.25
2016-05-14T12:28:27.031Z,16.25
2016-05-14T12:29:27.066Z,16.22
2016-05-14T12:30:26.975Z,16.16
2016-05-14T12:31:27.024Z,16.07
2016-05-14T12:32:26.980Z,16.16
2016-05-14T12:33:27.294Z,16.12
2016-05-14T12:34:26.829Z,16.09
2016-05-14T12:35:26.863Z,16.23
2016-05-14T12:36:26.881Z,16.09
2016-05-14T12:37:27.165Z,16.03
2016-05-14T12:38:26.808Z,16.01
2016-05-14T12:39:26.733Z,16
2016-05-14T12:40:26.799Z,15.99
2016-05-14T12:41:26.724Z,16.07
2016-05-14T12:42:26.897Z,16.11
2016-05-14T12:43:26.838Z,16.35
2016-05-14T12:44:26.888Z,16.62
2016-05-14T12:45:27.030Z,16.89
2016-05-14T12:46:26.627Z,16.9
2016-05-14T12:47:26.614Z,16.78
2016-05-14T12:48:26.695Z,16.81
2016-05-14T12:49:27.166Z,16.73
2016-05-14T12:50:26.622Z,16.62
2016-05-14T12:51:26.688Z,16.52
2016-05-14T12:52:26.596Z,16.42
2016-05-14T12:53:26.583Z,16.5
2016-05-14T12:54:26.773Z,16.49
2016-05-14T12:55:26.432Z,16.6
2016-05-14T12:56:26.514Z,16.6
2016-05-14T12:57:27.844Z,16.78
2016-05-14T12:58:26.456Z,17.26